sensor_id;sensor_type;location;lat;lon;timestamp;pressure;altitude;pressure_sealevel;temperature;humidity
75891;BME280;64571;47.512;19.054;2023-10-09T00:01:09;101436.72;;;11.87;45.98
75891;BME280;64571;47.512;19.054;2023-10-09T00:04:15;101447.56;;;11.94;46.05
75891;BME280;64571;47.512;19.054;2023-10-09T00:07:22;101454.81;;;11.89;45.58
75891;BME280;64571;47.512;19.054;2023-10-09T00:10:25;101440.06;;;11.89;45.91
75891;BME280;64571;47.512;19.054;2023-10-09T00:13:37;101452.56;;;12.02;46.03
75891;BME280;64571;47.512;19.054;2023-10-09T00:16:40;101436.44;;;11.83;45.69
75891;BME280;64571;47.512;19.054;2023-10-09T00:19:58;101431.97;;;11.82;45.96
75891;BME280;64571;47.512;19.054;2023-10-09T00:23:03;101446.44;;;11.95;45.36
75891;BME280;64571;47.512;19.054;2023-10-09T00:26:14;101438.09;;;11.89;45.36
75891;BME280;64571;47.512;19.054;2023-10-09T00:29:21;101452.00;;;12.00;45.61
75891;BME280;64571;47.512;19.054;2023-10-09T00:32:24;101428.06;;;11.94;46.22
75891;BME280;64571;47.512;19.054;2023-10-09T00:35:31;101426.37;;;12.03;46.39
75891;BME280;64571;47.512;19.054;2023-10-09T00:38:46;101424.72;;;11.91;46.66
75891;BME280;64571;47.512;19.054;2023-10-09T00:41:51;101414.72;;;11.75;46.84
75891;BME280;64571;47.512;19.054;2023-10-09T00:44:56;101414.41;;;11.92;46.69
75891;BME280;64571;47.512;19.054;2023-10-09T00:47:59;101429.16;;;11.77;47.47
75891;BME280;64571;47.512;19.054;2023-10-09T00:51:05;101430.00;;;11.78;47.69
75891;BME280;64571;47.512;19.054;2023-10-09T00:54:18;101423.06;;;11.75;48.14
75891;BME280;64571;47.512;19.054;2023-10-09T00:57:22;101440.03;;;11.84;48.30
75891;BME280;64571;47.512;19.054;2023-10-09T01:00:27;101435.31;;;11.69;48.19
75891;BME280;64571;47.512;19.054;2023-10-09T01:03:48;101407.75;;;11.73;48.21
75891;BME280;64571;47.512;19.054;2023-10-09T01:06:54;101424.19;;;11.64;48.63
75891;BME280;64571;47.512;19.054;2023-10-09T01:10:19;101416.94;;;11.63;48.39
75891;BME280;64571;47.512;19.054;2023-10-09T01:13:24;101429.75;;;11.84;47.97
75891;BME280;64571;47.512;19.054;2023-10-09T01:16:50;101410.81;;;11.86;47.69
75891;BME280;64571;47.512;19.054;2023-10-09T01:19:56;101422.75;;;11.92;48.07
75891;BME280;64571;47.512;19.054;2023-10-09T01:23:05;101432.78;;;11.78;48.31
75891;BME280;64571;47.512;19.054;2023-10-09T01:26:10;101430.59;;;11.85;48.24
75891;BME280;64571;47.512;19.054;2023-10-09T01:29:21;101436.69;;;11.61;48.25
75891;BME280;64571;47.512;19.054;2023-10-09T01:32:24;101430.31;;;11.51;48.57
75891;BME280;64571;47.512;19.054;2023-10-09T01:35:29;101429.47;;;11.50;48.83
75891;BME280;64571;47.512;19.054;2023-10-09T01:38:35;101435.31;;;11.59;48.73
75891;BME280;64571;47.512;19.054;2023-10-09T01:41:45;101421.38;;;11.44;49.16
75891;BME280;64571;47.512;19.054;2023-10-09T01:44:49;101416.09;;;11.52;49.17
75891;BME280;64571;47.512;19.054;2023-10-09T01:47:53;101427.78;;;11.70;49.29
75891;BME280;64571;47.512;19.054;2023-10-09T01:51:01;101424.16;;;11.44;50.19
75891;BME280;64571;47.512;19.054;2023-10-09T01:54:04;101441.72;;;11.19;51.07
75891;BME280;64571;47.512;19.054;2023-10-09T01:57:08;101445.31;;;11.19;51.20
75891;BME280;64571;47.512;19.054;2023-10-09T02:00:25;101440.34;;;11.31;51.12
75891;BME280;64571;47.512;19.054;2023-10-09T02:03:32;101444.22;;;11.25;51.12
75891;BME280;64571;47.512;19.054;2023-10-09T02:06:39;101454.78;;;11.18;51.11
75891;BME280;64571;47.512;19.054;2023-10-09T02:09:42;101449.81;;;11.35;50.53
75891;BME280;64571;47.512;19.054;2023-10-09T02:12:50;101452.56;;;11.56;49.99
75891;BME280;64571;47.512;19.054;2023-10-09T02:15:59;101436.72;;;11.46;49.90
75891;BME280;64571;47.512;19.054;2023-10-09T02:19:19;101443.69;;;11.54;50.11
75891;BME280;64571;47.512;19.054;2023-10-09T02:22:37;101444.53;;;11.44;50.45
75891;BME280;64571;47.512;19.054;2023-10-09T02:25:40;101448.94;;;11.14;51.19
75891;BME280;64571;47.512;19.054;2023-10-09T02:28:46;101439.50;;;11.36;50.61
75891;BME280;64571;47.512;19.054;2023-10-09T02:32:01;101422.81;;;11.41;50.63
75891;BME280;64571;47.512;19.054;2023-10-09T02:35:16;101409.16;;;11.14;50.97
75891;BME280;64571;47.512;19.054;2023-10-09T02:38:42;101406.37;;;11.14;50.73
75891;BME280;64571;47.512;19.054;2023-10-09T02:41:45;101428.91;;;11.28;50.67
75891;BME280;64571;47.512;19.054;2023-10-09T02:44:52;101418.06;;;11.26;50.69
75891;BME280;64571;47.512;19.054;2023-10-09T02:47:55;101405.00;;;11.32;50.63
75891;BME280;64571;47.512;19.054;2023-10-09T02:50:58;101398.84;;;11.45;50.49
75891;BME280;64571;47.512;19.054;2023-10-09T02:54:02;101404.41;;;11.55;49.95
75891;BME280;64571;47.512;19.054;2023-10-09T02:57:21;101381.88;;;11.41;50.08
75891;BME280;64571;47.512;19.054;2023-10-09T03:00:25;101366.56;;;11.29;50.22
75891;BME280;64571;47.512;19.054;2023-10-09T03:03:33;101379.91;;;11.16;51.14
75891;BME280;64571;47.512;19.054;2023-10-09T03:06:38;101380.78;;;11.17;51.76
75891;BME280;64571;47.512;19.054;2023-10-09T03:09:52;101373.53;;;11.31;51.07
75891;BME280;64571;47.512;19.054;2023-10-09T03:12:55;101374.62;;;11.20;51.48
75891;BME280;64571;47.512;19.054;2023-10-09T03:15:58;101367.41;;;11.14;52.25
75891;BME280;64571;47.512;19.054;2023-10-09T03:19:01;101380.75;;;11.12;52.75
75891;BME280;64571;47.512;19.054;2023-10-09T03:22:08;101395.25;;;11.39;52.58
75891;BME280;64571;47.512;19.054;2023-10-09T03:25:14;101363.53;;;10.95;55.07
75891;BME280;64571;47.512;19.054;2023-10-09T03:28:19;101374.94;;;11.24;54.69
75891;BME280;64571;47.512;19.054;2023-10-09T03:31:22;101383.53;;;11.12;55.35
75891;BME280;64571;47.512;19.054;2023-10-09T03:34:25;101366.84;;;11.12;54.69
75891;BME280;64571;47.512;19.054;2023-10-09T03:37:27;101377.13;;;11.16;54.39
75891;BME280;64571;47.512;19.054;2023-10-09T03:40:46;101385.75;;;11.25;54.00
75891;BME280;64571;47.512;19.054;2023-10-09T03:43:51;101389.69;;;11.04;53.23
75891;BME280;64571;47.512;19.054;2023-10-09T03:46:55;101394.69;;;11.22;52.95
75891;BME280;64571;47.512;19.054;2023-10-09T03:49:58;101393.53;;;10.93;53.91
75891;BME280;64571;47.512;19.054;2023-10-09T03:53:07;101372.41;;;11.12;53.38
75891;BME280;64571;47.512;19.054;2023-10-09T03:56:10;101362.94;;;11.03;52.82
75891;BME280;64571;47.512;19.054;2023-10-09T03:59:19;101378.56;;;11.09;53.77
75891;BME280;64571;47.512;19.054;2023-10-09T04:02:24;101373.53;;;11.06;53.98
75891;BME280;64571;47.512;19.054;2023-10-09T04:05:27;101364.91;;;10.87;53.88
75891;BME280;64571;47.512;19.054;2023-10-09T04:08:30;101364.63;;;11.14;53.12
75891;BME280;64571;47.512;19.054;2023-10-09T04:11:36;101357.66;;;10.86;53.95
75891;BME280;64571;47.512;19.054;2023-10-09T04:14:40;101384.66;;;11.01;53.30
75891;BME280;64571;47.512;19.054;2023-10-09T04:17:52;101382.97;;;10.89;53.52
75891;BME280;64571;47.512;19.054;2023-10-09T04:20:55;101378.56;;;11.04;51.82
75891;BME280;64571;47.512;19.054;2023-10-09T04:24:22;101361.81;;;10.94;51.98
75891;BME280;64571;47.512;19.054;2023-10-09T04:27:25;101363.81;;;11.08;51.74
75891;BME280;64571;47.512;19.054;2023-10-09T04:30:29;101359.63;;;10.90;53.03
75891;BME280;64571;47.512;19.054;2023-10-09T04:33:31;101350.72;;;11.04;52.48
75891;BME280;64571;47.512;19.054;2023-10-09T04:36:34;101352.94;;;11.07;52.09
75891;BME280;64571;47.512;19.054;2023-10-09T04:39:48;101354.63;;;11.08;51.87
75891;BME280;64571;47.512;19.054;2023-10-09T04:43:03;101345.44;;;11.18;51.63
75891;BME280;64571;47.512;19.054;2023-10-09T04:46:09;101327.34;;;11.05;51.60
75891;BME280;64571;47.512;19.054;2023-10-09T04:49:15;101340.97;;;11.01;50.96
75891;BME280;64571;47.512;19.054;2023-10-09T04:52:30;101330.69;;;10.92;51.10
75891;BME280;64571;47.512;19.054;2023-10-09T04:55:33;101342.37;;;11.14;50.53
75891;BME280;64571;47.512;19.054;2023-10-09T04:58:41;101331.78;;;11.11;50.31
75891;BME280;64571;47.512;19.054;2023-10-09T05:01:44;101337.63;;;11.14;50.16
75891;BME280;64571;47.512;19.054;2023-10-09T05:04:49;101329.03;;;11.26;49.73
75891;BME280;64571;47.512;19.054;2023-10-09T05:08:13;101322.31;;;11.12;49.87
75891;BME280;64571;47.512;19.054;2023-10-09T05:11:31;101318.16;;;11.09;49.91
75891;BME280;64571;47.512;19.054;2023-10-09T05:14:37;101306.22;;;11.14;49.57
75891;BME280;64571;47.512;19.054;2023-10-09T05:17:47;101312.88;;;11.23;48.58
75891;BME280;64571;47.512;19.054;2023-10-09T05:20:59;101315.09;;;11.21;48.72
75891;BME280;64571;47.512;19.054;2023-10-09T05:24:21;101306.19;;;11.19;48.85
75891;BME280;64571;47.512;19.054;2023-10-09T05:27:26;101323.44;;;11.16;48.98
75891;BME280;64571;47.512;19.054;2023-10-09T05:30:47;101307.03;;;11.25;48.23
75891;BME280;64571;47.512;19.054;2023-10-09T05:33:57;101286.44;;;11.15;48.06
75891;BME280;64571;47.512;19.054;2023-10-09T05:37:04;101314.81;;;11.23;47.76
75891;BME280;64571;47.512;19.054;2023-10-09T05:40:20;101311.19;;;11.12;47.66
75891;BME280;64571;47.512;19.054;2023-10-09T05:43:33;101332.91;;;11.10;47.60
75891;BME280;64571;47.512;19.054;2023-10-09T05:46:54;101342.37;;;11.24;47.91
75891;BME280;64571;47.512;19.054;2023-10-09T05:50:15;101350.72;;;11.14;47.80
75891;BME280;64571;47.512;19.054;2023-10-09T05:53:18;101335.16;;;11.13;47.21
75891;BME280;64571;47.512;19.054;2023-10-09T05:56:40;101331.22;;;11.34;47.26
75891;BME280;64571;47.512;19.054;2023-10-09T06:00:02;101308.41;;;11.37;47.64
75891;BME280;64571;47.512;19.054;2023-10-09T06:03:33;101302.56;;;11.34;47.30
75891;BME280;64571;47.512;19.054;2023-10-09T06:06:48;101311.75;;;11.19;47.36
75891;BME280;64571;47.512;19.054;2023-10-09T06:10:03;101314.00;;;11.27;47.49
75891;BME280;64571;47.512;19.054;2023-10-09T06:13:19;101312.28;;;11.41;46.68
75891;BME280;64571;47.512;19.054;2023-10-09T06:16:42;101300.03;;;11.37;45.81
75891;BME280;64571;47.512;19.054;2023-10-09T06:19:45;101285.03;;;11.33;45.74
75891;BME280;64571;47.512;19.054;2023-10-09T06:22:51;101292.81;;;11.21;45.50
75891;BME280;64571;47.512;19.054;2023-10-09T06:26:00;101285.59;;;11.30;45.88
75891;BME280;64571;47.512;19.054;2023-10-09T06:29:23;101274.47;;;11.35;45.77
75891;BME280;64571;47.512;19.054;2023-10-09T06:32:41;101283.34;;;11.32;45.61
75891;BME280;64571;47.512;19.054;2023-10-09T06:36:00;101283.91;;;11.29;44.40
75891;BME280;64571;47.512;19.054;2023-10-09T06:39:10;101273.66;;;11.14;44.70
75891;BME280;64571;47.512;19.054;2023-10-09T06:42:32;101285.56;;;11.40;44.62
75891;BME280;64571;47.512;19.054;2023-10-09T06:45:42;101292.53;;;11.38;44.58
75891;BME280;64571;47.512;19.054;2023-10-09T06:48:48;101277.53;;;11.19;43.56
75891;BME280;64571;47.512;19.054;2023-10-09T06:52:02;101291.69;;;11.43;44.22
75891;BME280;64571;47.512;19.054;2023-10-09T06:55:18;101287.50;;;11.50;43.57
75891;BME280;64571;47.512;19.054;2023-10-09T06:58:30;101275.78;;;11.48;43.56
75891;BME280;64571;47.512;19.054;2023-10-09T07:01:44;101260.78;;;11.49;43.10
75891;BME280;64571;47.512;19.054;2023-10-09T07:04:48;101269.16;;;11.34;42.96
75891;BME280;64571;47.512;19.054;2023-10-09T07:07:51;101257.19;;;11.33;42.64
75891;BME280;64571;47.512;19.054;2023-10-09T07:11:00;101262.22;;;11.31;42.69
75891;BME280;64571;47.512;19.054;2023-10-09T07:14:23;101249.41;;;11.35;42.34
75891;BME280;64571;47.512;19.054;2023-10-09T07:17:38;101254.37;;;11.38;42.38
75891;BME280;64571;47.512;19.054;2023-10-09T07:20:40;101256.06;;;11.45;42.28
75891;BME280;64571;47.512;19.054;2023-10-09T07:23:55;101254.84;;;11.66;42.10
75891;BME280;64571;47.512;19.054;2023-10-09T07:27:00;101252.31;;;11.90;41.76
75891;BME280;64571;47.512;19.054;2023-10-09T07:30:13;101237.06;;;11.67;41.68
75891;BME280;64571;47.512;19.054;2023-10-09T07:33:31;101197.72;;;11.79;41.71
75891;BME280;64571;47.512;19.054;2023-10-09T07:36:55;101189.09;;;11.85;41.57
75891;BME280;64571;47.512;19.054;2023-10-09T07:40:02;101182.13;;;11.78;41.66
75891;BME280;64571;47.512;19.054;2023-10-09T07:43:09;101176.78;;;11.91;41.68
75891;BME280;64571;47.512;19.054;2023-10-09T07:46:19;101166.78;;;12.30;41.19
75891;BME280;64571;47.512;19.054;2023-10-09T07:49:54;101159.81;;;12.27;40.98
75891;BME280;64571;47.512;19.054;2023-10-09T07:53:01;101146.16;;;12.31;40.95
75891;BME280;64571;47.512;19.054;2023-10-09T07:56:17;101159.22;;;12.35;41.02
75891;BME280;64571;47.512;19.054;2023-10-09T07:59:23;101164.97;;;12.10;40.92
75891;BME280;64571;47.512;19.054;2023-10-09T08:02:26;101161.69;;;12.03;40.89
75891;BME280;64571;47.512;19.054;2023-10-09T08:05:35;101171.59;;;12.19;40.90
75891;BME280;64571;47.512;19.054;2023-10-09T08:08:46;101158.16;;;11.87;40.86
75891;BME280;64571;47.512;19.054;2023-10-09T08:12:08;101160.69;;;11.83;40.72
75891;BME280;64571;47.512;19.054;2023-10-09T08:15:17;101156.34;;;12.06;40.70
75891;BME280;64571;47.512;19.054;2023-10-09T08:18:24;101147.38;;;12.14;40.74
75891;BME280;64571;47.512;19.054;2023-10-09T08:21:34;101157.50;;;12.00;40.81
75891;BME280;64571;47.512;19.054;2023-10-09T08:25:01;101139.03;;;12.14;40.79
75891;BME280;64571;47.512;19.054;2023-10-09T08:28:05;101131.69;;;12.24;40.54
75891;BME280;64571;47.512;19.054;2023-10-09T08:31:19;101118.91;;;12.23;40.74
75891;BME280;64571;47.512;19.054;2023-10-09T08:34:22;101123.28;;;12.29;40.55
75891;BME280;64571;47.512;19.054;2023-10-09T08:37:31;101128.16;;;12.47;40.18
75891;BME280;64571;47.512;19.054;2023-10-09T08:40:35;101130.72;;;12.44;40.21
75891;BME280;64571;47.512;19.054;2023-10-09T08:43:53;101121.53;;;12.38;40.36
75891;BME280;64571;47.512;19.054;2023-10-09T08:46:56;101113.97;;;12.44;40.37
75891;BME280;64571;47.512;19.054;2023-10-09T08:49:59;101107.75;;;12.52;39.96
75891;BME280;64571;47.512;19.054;2023-10-09T08:53:03;101110.53;;;12.52;39.78
75891;BME280;64571;47.512;19.054;2023-10-09T08:56:06;101104.87;;;12.62;39.25
75891;BME280;64571;47.512;19.054;2023-10-09T08:59:10;101122.09;;;12.69;39.04
75891;BME280;64571;47.512;19.054;2023-10-09T09:02:13;101108.13;;;12.69;38.64
75891;BME280;64571;47.512;19.054;2023-10-09T09:05:17;101099.69;;;12.79;38.53
75891;BME280;64571;47.512;19.054;2023-10-09T09:08:22;101095.06;;;12.93;38.46
75891;BME280;64571;47.512;19.054;2023-10-09T09:11:40;101071.97;;;12.88;38.12
75891;BME280;64571;47.512;19.054;2023-10-09T09:14:50;101074.63;;;12.98;37.53
75891;BME280;64571;47.512;19.054;2023-10-09T09:18:07;101085.78;;;12.98;37.46
75891;BME280;64571;47.512;19.054;2023-10-09T09:21:18;101070.91;;;12.84;37.50
75891;BME280;64571;47.512;19.054;2023-10-09T09:24:25;101063.16;;;13.00;37.56
75891;BME280;64571;47.512;19.054;2023-10-09T09:27:47;101068.69;;;13.29;37.12
75891;BME280;64571;47.512;19.054;2023-10-09T09:31:07;101068.78;;;13.42;36.67
75891;BME280;64571;47.512;19.054;2023-10-09T09:34:15;101050.78;;;13.86;36.38
75891;BME280;64571;47.512;19.054;2023-10-09T09:37:28;101060.41;;;14.13;35.96
75891;BME280;64571;47.512;19.054;2023-10-09T09:40:32;101067.50;;;14.24;35.67
75891;BME280;64571;47.512;19.054;2023-10-09T09:43:43;101061.81;;;14.29;35.64
75891;BME280;64571;47.512;19.054;2023-10-09T09:46:49;101059.22;;;14.33;35.96
75891;BME280;64571;47.512;19.054;2023-10-09T09:49:56;101057.16;;;14.38;35.51
75891;BME280;64571;47.512;19.054;2023-10-09T09:53:03;101042.69;;;14.36;35.43
75891;BME280;64571;47.512;19.054;2023-10-09T09:56:06;101035.06;;;14.83;34.93
75891;BME280;64571;47.512;19.054;2023-10-09T09:59:09;101057.66;;;14.73;34.97
75891;BME280;64571;47.512;19.054;2023-10-09T10:02:42;101044.72;;;14.63;35.07
75891;BME280;64571;47.512;19.054;2023-10-09T10:05:50;101042.75;;;14.91;34.97
75891;BME280;64571;47.512;19.054;2023-10-09T10:08:53;101037.53;;;15.12;34.48
75891;BME280;64571;47.512;19.054;2023-10-09T10:11:56;101018.28;;;14.69;34.96
75891;BME280;64571;47.512;19.054;2023-10-09T10:15:06;100975.81;;;15.31;34.16
75891;BME280;64571;47.512;19.054;2023-10-09T10:18:17;100983.06;;;15.32;33.91
75891;BME280;64571;47.512;19.054;2023-10-09T10:21:23;100934.84;;;15.22;34.16
75891;BME280;64571;47.512;19.054;2023-10-09T10:24:52;100938.25;;;14.96;34.77
75891;BME280;64571;47.512;19.054;2023-10-09T10:28:15;100940.03;;;14.78;34.91
75891;BME280;64571;47.512;19.054;2023-10-09T10:31:18;100929.16;;;14.49;35.21
75891;BME280;64571;47.512;19.054;2023-10-09T10:34:21;100916.09;;;14.72;35.25
75891;BME280;64571;47.512;19.054;2023-10-09T10:40:51;100879.78;;;15.17;34.36
75891;BME280;64571;47.512;19.054;2023-10-09T10:44:00;100883.81;;;15.25;34.41
75891;BME280;64571;47.512;19.054;2023-10-09T10:47:15;100896.59;;;15.17;34.55
75891;BME280;64571;47.512;19.054;2023-10-09T10:50:35;100883.50;;;14.90;34.68
75891;BME280;64571;47.512;19.054;2023-10-09T10:53:50;100870.94;;;15.24;34.41
75891;BME280;64571;47.512;19.054;2023-10-09T10:56:55;100851.47;;;14.60;35.05
75891;BME280;64571;47.512;19.054;2023-10-09T11:00:00;100862.84;;;14.77;35.09
75891;BME280;64571;47.512;19.054;2023-10-09T11:03:35;100852.16;;;15.02;34.92
75891;BME280;64571;47.512;19.054;2023-10-09T11:06:38;100873.47;;;15.56;34.14
75891;BME280;64571;47.512;19.054;2023-10-09T11:09:53;100876.47;;;15.82;34.09
75891;BME280;64571;47.512;19.054;2023-10-09T11:13:02;100860.28;;;15.79;33.56
75891;BME280;64571;47.512;19.054;2023-10-09T11:16:10;100852.19;;;16.09;33.28
75891;BME280;64571;47.512;19.054;2023-10-09T11:19:31;100818.84;;;15.99;33.44
75891;BME280;64571;47.512;19.054;2023-10-09T11:22:34;100891.66;;;15.36;34.22
75891;BME280;64571;47.512;19.054;2023-10-09T11:25:50;100916.59;;;15.47;34.38
75891;BME280;64571;47.512;19.054;2023-10-09T11:29:13;100886.19;;;15.31;34.82
75891;BME280;64571;47.512;19.054;2023-10-09T11:32:20;100809.50;;;15.72;34.63
75891;BME280;64571;47.512;19.054;2023-10-09T11:35:26;100813.78;;;15.78;34.46
75891;BME280;64571;47.512;19.054;2023-10-09T11:38:37;100883.25;;;16.21;33.78
75891;BME280;64571;47.512;19.054;2023-10-09T11:41:40;100872.75;;;15.95;34.25
75891;BME280;64571;47.512;19.054;2023-10-09T11:44:46;100895.41;;;16.65;33.67
75891;BME280;64571;47.512;19.054;2023-10-09T11:48:15;100877.53;;;16.43;33.76
75891;BME280;64571;47.512;19.054;2023-10-09T11:51:23;100884.84;;;16.53;33.58
75891;BME280;64571;47.512;19.054;2023-10-09T11:54:35;100867.37;;;16.08;34.39
75891;BME280;64571;47.512;19.054;2023-10-09T11:57:38;100847.09;;;16.19;34.20
75891;BME280;64571;47.512;19.054;2023-10-09T12:00:40;100837.22;;;16.22;34.60
75891;BME280;64571;47.512;19.054;2023-10-09T12:03:50;100817.88;;;16.78;34.29
75891;BME280;64571;47.512;19.054;2023-10-09T12:06:53;100801.62;;;16.40;35.36
75891;BME280;64571;47.512;19.054;2023-10-09T12:10:08;100783.41;;;16.20;36.91
75891;BME280;64571;47.512;19.054;2023-10-09T12:13:12;100788.31;;;15.97;37.37
75891;BME280;64571;47.512;19.054;2023-10-09T12:16:18;100801.44;;;15.79;39.53
75891;BME280;64571;47.512;19.054;2023-10-09T12:19:21;100804.16;;;16.02;41.07
75891;BME280;64571;47.512;19.054;2023-10-09T12:22:25;100792.59;;;15.94;40.55
75891;BME280;64571;47.512;19.054;2023-10-09T12:25:31;100783.75;;;15.70;39.29
75891;BME280;64571;47.512;19.054;2023-10-09T12:28:34;100782.00;;;15.83;39.23
75891;BME280;64571;47.512;19.054;2023-10-09T12:31:37;100760.25;;;15.88;39.42
75891;BME280;64571;47.512;19.054;2023-10-09T12:34:40;100757.81;;;15.95;42.92
75891;BME280;64571;47.512;19.054;2023-10-09T12:37:44;100761.03;;;15.80;43.04
75891;BME280;64571;47.512;19.054;2023-10-09T12:40:48;100758.94;;;15.55;41.24
75891;BME280;64571;47.512;19.054;2023-10-09T12:43:55;100766.00;;;15.83;41.48
75891;BME280;64571;47.512;19.054;2023-10-09T12:47:00;100759.56;;;15.83;42.43
75891;BME280;64571;47.512;19.054;2023-10-09T12:50:07;100771.31;;;15.93;43.42
75891;BME280;64571;47.512;19.054;2023-10-09T12:53:16;100772.66;;;16.05;46.12
75891;BME280;64571;47.512;19.054;2023-10-09T12:56:20;100771.38;;;15.71;45.92
75891;BME280;64571;47.512;19.054;2023-10-09T12:59:25;100783.59;;;15.75;46.97
75891;BME280;64571;47.512;19.054;2023-10-09T13:02:27;100780.94;;;15.70;46.70
75891;BME280;64571;47.512;19.054;2023-10-09T13:05:33;100764.88;;;15.62;46.75
75891;BME280;64571;47.512;19.054;2023-10-09T13:08:37;100775.38;;;15.48;47.52
75891;BME280;64571;47.512;19.054;2023-10-09T13:11:43;100766.72;;;15.35;47.93
75891;BME280;64571;47.512;19.054;2023-10-09T13:14:46;100773.75;;;15.24;48.35
75891;BME280;64571;47.512;19.054;2023-10-09T13:17:52;100758.84;;;15.37;48.91
75891;BME280;64571;47.512;19.054;2023-10-09T13:20:55;100757.19;;;15.36;48.41
75891;BME280;64571;47.512;19.054;2023-10-09T13:23:58;100767.94;;;15.43;49.43
75891;BME280;64571;47.512;19.054;2023-10-09T13:27:02;100751.12;;;15.43;49.77
75891;BME280;64571;47.512;19.054;2023-10-09T13:30:07;100747.25;;;15.30;50.71
75891;BME280;64571;47.512;19.054;2023-10-09T13:33:12;100741.94;;;15.20;51.61
75891;BME280;64571;47.512;19.054;2023-10-09T13:36:20;100732.34;;;15.12;51.46
75891;BME280;64571;47.512;19.054;2023-10-09T13:39:36;100746.91;;;15.23;53.58
75891;BME280;64571;47.512;19.054;2023-10-09T13:42:42;100734.22;;;14.94;52.48
75891;BME280;64571;47.512;19.054;2023-10-09T13:45:44;100740.25;;;14.88;53.56
75891;BME280;64571;47.512;19.054;2023-10-09T13:48:53;100741.91;;;14.89;55.59
75891;BME280;64571;47.512;19.054;2023-10-09T13:51:56;100744.66;;;14.80;57.62
75891;BME280;64571;47.512;19.054;2023-10-09T13:54:59;100754.69;;;14.81;56.68
75891;BME280;64571;47.512;19.054;2023-10-09T13:58:17;100759.84;;;14.88;58.43
75891;BME280;64571;47.512;19.054;2023-10-09T14:01:23;100753.56;;;14.82;58.93
75891;BME280;64571;47.512;19.054;2023-10-09T14:04:35;100736.25;;;14.80;58.35
75891;BME280;64571;47.512;19.054;2023-10-09T14:07:38;100709.69;;;14.69;58.60
75891;BME280;64571;47.512;19.054;2023-10-09T14:10:41;100703.00;;;14.79;60.78
75891;BME280;64571;47.512;19.054;2023-10-09T14:13:44;100694.09;;;14.77;59.69
75891;BME280;64571;47.512;19.054;2023-10-09T14:16:53;100689.22;;;14.60;60.27
75891;BME280;64571;47.512;19.054;2023-10-09T14:19:59;100706.38;;;14.67;59.00
75891;BME280;64571;47.512;19.054;2023-10-09T14:23:25;100693.66;;;14.61;60.49
75891;BME280;64571;47.512;19.054;2023-10-09T14:26:34;100686.62;;;14.63;60.97
75891;BME280;64571;47.512;19.054;2023-10-09T14:29:37;100689.97;;;14.52;60.59
75891;BME280;64571;47.512;19.054;2023-10-09T14:32:40;100696.88;;;14.54;61.34
75891;BME280;64571;47.512;19.054;2023-10-09T14:35:55;100696.38;;;14.52;62.35
75891;BME280;64571;47.512;19.054;2023-10-09T14:38:57;100712.22;;;14.57;62.49
75891;BME280;64571;47.512;19.054;2023-10-09T14:42:00;100714.00;;;14.53;62.49
75891;BME280;64571;47.512;19.054;2023-10-09T14:45:03;100701.87;;;14.43;63.99
75891;BME280;64571;47.512;19.054;2023-10-09T14:48:10;100705.44;;;14.35;65.60
75891;BME280;64571;47.512;19.054;2023-10-09T14:51:14;100718.63;;;14.57;66.48
75891;BME280;64571;47.512;19.054;2023-10-09T14:54:17;100705.34;;;14.63;66.39
75891;BME280;64571;47.512;19.054;2023-10-09T14:57:20;100708.28;;;14.58;65.84
75891;BME280;64571;47.512;19.054;2023-10-09T15:00:23;100707.03;;;14.64;67.18
75891;BME280;64571;47.512;19.054;2023-10-09T15:03:26;100688.31;;;14.51;67.37
75891;BME280;64571;47.512;19.054;2023-10-09T15:06:30;100702.47;;;14.54;68.11
75891;BME280;64571;47.512;19.054;2023-10-09T15:09:36;100700.22;;;14.56;69.65
75891;BME280;64571;47.512;19.054;2023-10-09T15:12:39;100688.53;;;14.40;69.19
75891;BME280;64571;47.512;19.054;2023-10-09T15:15:45;100690.19;;;14.41;69.60
75891;BME280;64571;47.512;19.054;2023-10-09T15:18:48;100693.28;;;14.40;71.02
75891;BME280;64571;47.512;19.054;2023-10-09T15:21:56;100683.72;;;14.32;70.39
75891;BME280;64571;47.512;19.054;2023-10-09T15:24:58;100668.19;;;14.26;72.55
75891;BME280;64571;47.512;19.054;2023-10-09T15:28:01;100674.31;;;14.28;73.03
75891;BME280;64571;47.512;19.054;2023-10-09T15:31:07;100687.25;;;14.24;72.01
75891;BME280;64571;47.512;19.054;2023-10-09T15:34:13;100680.44;;;14.16;73.39
75891;BME280;64571;47.512;19.054;2023-10-09T15:37:16;100691.03;;;14.06;73.91
75891;BME280;64571;47.512;19.054;2023-10-09T15:40:19;100671.31;;;13.88;73.93
75891;BME280;64571;47.512;19.054;2023-10-09T15:43:26;100674.50;;;13.82;73.99
75891;BME280;64571;47.512;19.054;2023-10-09T15:46:29;100659.00;;;13.76;75.09
75891;BME280;64571;47.512;19.054;2023-10-09T15:49:37;100668.09;;;13.81;74.16
75891;BME280;64571;47.512;19.054;2023-10-09T15:52:43;100665.38;;;13.90;75.47
75891;BME280;64571;47.512;19.054;2023-10-09T15:55:46;100648.34;;;13.78;75.29
75891;BME280;64571;47.512;19.054;2023-10-09T15:58:53;100655.50;;;13.70;75.00
75891;BME280;64571;47.512;19.054;2023-10-09T16:01:56;100663.78;;;13.75;76.05
75891;BME280;64571;47.512;19.054;2023-10-09T16:04:59;100660.16;;;13.61;76.50
75891;BME280;64571;47.512;19.054;2023-10-09T16:08:02;100644.47;;;13.51;76.84
75891;BME280;64571;47.512;19.054;2023-10-09T16:11:08;100656.03;;;13.58;76.81
75891;BME280;64571;47.512;19.054;2023-10-09T16:14:11;100660.47;;;13.46;78.17
75891;BME280;64571;47.512;19.054;2023-10-09T16:17:13;100682.81;;;13.46;78.22